Hamilton, Canada
Current Conditions -  °F | °C
As of 4:00 PM on Tuesday 27 Jan 2015 (Local Time) from CYHM Reporting Station
Broken Clouds Broken Clouds  
Wind Chill:   Ceiling: 25000
Heat Index: 16°   Visibility: 15mi
Dew Point:   Wind: 6mph
Humidity: 58%   Direction: 10°N
Pressure: 30.06"   Gusts: NA
Location:  43.26°N, 79.89°W
Report Text: CYHM 272100Z 01005KT 15SM FEW060 FEW080 BKN250 M09/M16 A3006 RMK SC1AC1CS4 SLP196
Loading
Personal Weather Stations






























Interactive Weather Map New forecast layout! Learn more

10-Day Weather Forecast

Advertisements
Track Severe Weather on mobile